Nueces — WDC2624 — position and weather

sailwx.info

Track history (hours):
 
Tides and Currents Weather Stations Pressure Air Temp Water Temp Dewpoint Dewpoint Depression Visibility Wind Speed Wind Dir Waves Ship Positions

Nueces

Owner: Kirby Inland Marine LP, Houston, TX. More information available from US FCC via Universal Licensing System and Coast Guard Vessel Documentation Center.

Last reported at 2017-Dec-10 15:56 UTC. Time now 2017-Dec-11 01:56 UTC.
Position N 30°01' W 094°02'.

Length 80 m; draft 2.8 m.

Type: . MMSI: 366995720.

Date/timePositionNaut miles runAvg speedWind from/ knotsBaromVisibWave heightAir tempDewpointWater temp
2017-Dec-10 15:56N 30°01' W 094°02'0 0.0
2017-Dec-10 15:30N 30°01' W 094°02'0 0.0
2017-Dec-10 15:00N 30°01' W 094°02'0 0.0
2017-Dec-10 13:21N 30°01' W 094°02'0 0.0
2017-Dec-10 13:00N 30°01' W 094°02'0 0.0
2017-Dec-10 12:08N 30°01' W 094°02'0 0.0
2017-Dec-10 11:54N 30°01' W 094°02'0 0.0
2017-Dec-10 11:24N 30°01' W 094°02'0 0.0
2017-Dec-10 07:37N 30°01' W 094°02'0 0.0
2017-Dec-10 07:30N 30°01' W 094°02'  
2017-Dec-03 03:29N 28°57' W 095°20'38 1.6
2017-Dec-02 04:13N 29°23' W 094°49'1 4.8
2017-Dec-02 04:00N 29°24' W 094°49'2 4.8
2017-Dec-02 03:29N 29°26' W 094°50'4 4.6
2017-Dec-02 02:32N 29°30' W 094°52'0 4.7
2017-Dec-02 02:30N 29°30' W 094°52'2 4.4
2017-Dec-02 01:57N 29°32' W 094°54'2 4.3
2017-Dec-02 01:30N 29°34' W 094°55'2 4.2
2017-Dec-02 01:00N 29°35' W 094°56'2 4.5
2017-Dec-02 00:30N 29°37' W 094°58'2 4.4
2017-Dec-02 00:00N 29°40' W 094°58'2 4.3
2017-Dec-01 23:30N 29°41' W 094°59'2 4.0
2017-Dec-01 23:00N 29°43' W 095°01'2 3.6
2017-Dec-01 22:30N 29°44' W 095°03'3 4.2
2017-Dec-01 21:51N 29°46' W 095°05'2 2.9
2017-Dec-01 21:18N 29°47' W 095°04'2 0.3
2017-Dec-01 11:30N 29°46' W 095°06'1 0.4
2017-Dec-01 09:33N 29°46' W 095°05'0 4.1
2017-Dec-01 09:29N 29°46' W 095°05'1 1.8
2017-Dec-01 08:53N 29°45' W 095°06'0 0.3
2017-Dec-01 08:30N 29°45' W 095°06'2 3.2
2017-Dec-01 07:58N 29°45' W 095°04'3 5.4
2017-Dec-01 07:30N 29°44' W 095°02'3 5.1
2017-Dec-01 07:01N 29°42' W 094°60'3 5.7
2017-Dec-01 06:31N 29°39' W 094°58'3 6.1
2017-Dec-01 06:00N 29°36' W 094°57'3 6.1
2017-Dec-01 05:30N 29°34' W 094°55'3 6.0
2017-Dec-01 05:00N 29°31' W 094°53'3 5.4
2017-Dec-01 04:30N 29°29' W 094°52'3 5.4
2017-Dec-01 03:58N 29°26' W 094°50'3 5.8
2017-Dec-01 03:29N 29°24' W 094°49'3 4.6
2017-Dec-01 02:46N 29°21' W 094°50'  
Track history (hours):
 
Tides and Currents Weather Stations Pressure Air Temp Water Temp Dewpoint Dewpoint Depression Visibility Wind Speed Wind Dir Waves Ship Positions

Nueces

Owner: Kirby Inland Marine LP, Houston, TX. More information available from US FCC via Universal Licensing System and Coast Guard Vessel Documentation Center.

Last reported at 2017-Dec-10 15:56 UTC. Time now 2017-Dec-11 01:56 UTC.
Position N 30°01' W 094°02'.

Length 80 m; draft 2.8 m.

Type: . MMSI: 366995720.

Date/timePositionNaut miles runAvg speedWind from/ knotsBaromVisibWave heightAir tempDewpointWater temp
2017-Dec-10 15:56N 30°01' W 094°02'0 0.0
2017-Dec-10 15:30N 30°01' W 094°02'0 0.0
2017-Dec-10 15:00N 30°01' W 094°02'0 0.0
2017-Dec-10 13:21N 30°01' W 094°02'0 0.0
2017-Dec-10 13:00N 30°01' W 094°02'0 0.0
2017-Dec-10 12:08N 30°01' W 094°02'0 0.0
2017-Dec-10 11:54N 30°01' W 094°02'0 0.0
2017-Dec-10 11:24N 30°01' W 094°02'0 0.0
2017-Dec-10 07:37N 30°01' W 094°02'0 0.0
2017-Dec-10 07:30N 30°01' W 094°02'  
2017-Dec-03 03:29N 28°57' W 095°20'38 1.6
2017-Dec-02 04:13N 29°23' W 094°49'1 4.8
2017-Dec-02 04:00N 29°24' W 094°49'2 4.8
2017-Dec-02 03:29N 29°26' W 094°50'4 4.6
2017-Dec-02 02:32N 29°30' W 094°52'0 4.7
2017-Dec-02 02:30N 29°30' W 094°52'2 4.4
2017-Dec-02 01:57N 29°32' W 094°54'2 4.3
2017-Dec-02 01:30N 29°34' W 094°55'2 4.2
2017-Dec-02 01:00N 29°35' W 094°56'2 4.5
2017-Dec-02 00:30N 29°37' W 094°58'2 4.4
2017-Dec-02 00:00N 29°40' W 094°58'2 4.3
2017-Dec-01 23:30N 29°41' W 094°59'2 4.0
2017-Dec-01 23:00N 29°43' W 095°01'2 3.6
2017-Dec-01 22:30N 29°44' W 095°03'3 4.2
2017-Dec-01 21:51N 29°46' W 095°05'2 2.9
2017-Dec-01 21:18N 29°47' W 095°04'2 0.3
2017-Dec-01 11:30N 29°46' W 095°06'1 0.4
2017-Dec-01 09:33N 29°46' W 095°05'0 4.1
2017-Dec-01 09:29N 29°46' W 095°05'1 1.8
2017-Dec-01 08:53N 29°45' W 095°06'0 0.3
2017-Dec-01 08:30N 29°45' W 095°06'2 3.2
2017-Dec-01 07:58N 29°45' W 095°04'3 5.4
2017-Dec-01 07:30N 29°44' W 095°02'3 5.1
2017-Dec-01 07:01N 29°42' W 094°60'3 5.7
2017-Dec-01 06:31N 29°39' W 094°58'3 6.1
2017-Dec-01 06:00N 29°36' W 094°57'3 6.1
2017-Dec-01 05:30N 29°34' W 094°55'3 6.0
2017-Dec-01 05:00N 29°31' W 094°53'3 5.4
2017-Dec-01 04:30N 29°29' W 094°52'3 5.4
2017-Dec-01 03:58N 29°26' W 094°50'3 5.8
2017-Dec-01 03:29N 29°24' W 094°49'3 4.6
2017-Dec-01 02:46N 29°21' W 094°50'  

Dump ship's entire track history